createdAt,value
2023-05-15T00:00:26.189Z,14.80
2023-05-15T00:02:55.299Z,14.80
2023-05-15T00:05:24.360Z,14.80
2023-05-15T00:07:55.680Z,14.80
2023-05-15T00:10:24.673Z,14.80
2023-05-15T00:12:53.762Z,14.80
2023-05-15T00:15:24.266Z,14.80
2023-05-15T00:17:53.518Z,14.80
2023-05-15T00:20:22.400Z,14.70
2023-05-15T00:22:51.211Z,14.70
2023-05-15T00:25:20.416Z,14.70
2023-05-15T00:27:49.376Z,14.70
2023-05-15T00:30:18.313Z,14.70
2023-05-15T00:32:48.832Z,14.70
2023-05-15T00:35:20.295Z,14.70
2023-05-15T00:37:49.558Z,14.70
2023-05-15T00:40:22.562Z,14.70
2023-05-15T00:42:51.907Z,14.70
2023-05-15T00:45:23.249Z,14.60
2023-05-15T00:47:55.482Z,14.60
2023-05-15T00:50:25.446Z,14.60
2023-05-15T00:52:55.166Z,14.60
2023-05-15T00:55:24.512Z,14.60
2023-05-15T00:57:54.558Z,14.60
2023-05-15T01:00:24.090Z,14.60
2023-05-15T01:02:55.402Z,14.60
2023-05-15T01:05:24.797Z,14.60
2023-05-15T01:08:02.193Z,14.60
2023-05-15T01:10:31.462Z,14.60
2023-05-15T01:13:02.628Z,14.60
2023-05-15T01:15:31.701Z,14.60
2023-05-15T01:18:03.444Z,14.60
2023-05-15T01:20:40.701Z,14.60
2023-05-15T01:23:16.675Z,14.60
2023-05-15T01:26:07.169Z,14.60
2023-05-15T01:28:41.843Z,14.60
2023-05-15T01:31:15.992Z,14.60
2023-05-15T01:33:48.109Z,14.60
2023-05-15T01:36:23.261Z,14.60
2023-05-15T01:38:56.785Z,14.60
2023-05-15T01:41:29.677Z,14.60
2023-05-15T01:44:05.940Z,14.60
2023-05-15T01:46:40.303Z,14.50
2023-05-15T01:49:12.056Z,14.60
2023-05-15T01:51:43.535Z,14.50
2023-05-15T01:54:16.255Z,14.60
2023-05-15T01:56:46.332Z,14.60
2023-05-15T01:59:18.890Z,14.50
2023-05-15T02:01:48.942Z,14.60
2023-05-15T02:04:19.955Z,14.50
2023-05-15T02:06:50.334Z,14.50
2023-05-15T02:09:20.811Z,14.50
2023-05-15T02:11:50.851Z,14.50
2023-05-15T02:14:22.223Z,14.50
2023-05-15T02:16:51.650Z,14.60
2023-05-15T02:19:20.866Z,14.50
2023-05-15T02:21:50.383Z,14.50
2023-05-15T02:24:19.702Z,14.60
2023-05-15T02:26:57.985Z,14.50
2023-05-15T02:29:35.295Z,14.60
2023-05-15T02:32:11.092Z,14.60
2023-05-15T02:34:46.835Z,14.50
2023-05-15T02:37:21.028Z,14.50
2023-05-15T02:39:53.822Z,14.50
2023-05-15T02:42:23.838Z,14.40
2023-05-15T02:44:54.931Z,14.40
2023-05-15T02:47:26.128Z,14.40
2023-05-15T02:49:57.670Z,14.40
2023-05-15T02:52:27.048Z,14.40
2023-05-15T02:54:56.298Z,14.30
2023-05-15T02:57:25.386Z,14.30
2023-05-15T02:59:57.122Z,14.30
2023-05-15T03:02:26.151Z,14.30
2023-05-15T03:04:55.373Z,14.30
2023-05-15T03:07:24.339Z,14.30
2023-05-15T03:13:47.622Z,14.30
2023-05-15T03:16:18.110Z,14.20
2023-05-15T03:18:47.545Z,14.20
2023-05-15T03:21:17.597Z,14.20
2023-05-15T03:23:49.563Z,14.20
2023-05-15T03:26:18.628Z,14.10
2023-05-15T03:28:47.566Z,14.10
2023-05-15T03:31:17.914Z,14.10
2023-05-15T03:33:51.463Z,14.00
2023-05-15T03:36:20.788Z,14.00
2023-05-15T03:38:49.842Z,14.00
2023-05-15T03:41:18.788Z,14.00
2023-05-15T03:43:47.724Z,14.00
2023-05-15T03:46:21.939Z,14.00
2023-05-15T03:48:51.198Z,14.00
2023-05-15T03:51:20.374Z,14.00
2023-05-15T03:53:49.708Z,14.00
2023-05-15T03:56:18.948Z,13.90
2023-05-15T03:58:47.942Z,13.90
2023-05-15T04:01:17.419Z,13.90
2023-05-15T04:03:48.104Z,13.90
2023-05-15T04:06:17.193Z,13.90
2023-05-15T04:08:46.334Z,13.90
2023-05-15T04:11:15.710Z,13.90
2023-05-15T04:13:44.695Z,13.90
2023-05-15T04:16:14.364Z,13.90
2023-05-15T04:18:43.335Z,13.90
2023-05-15T04:21:13.565Z,13.90
2023-05-15T04:23:42.629Z,13.80
2023-05-15T04:26:11.695Z,13.80
2023-05-15T04:28:49.312Z,13.90
2023-05-15T04:31:25.464Z,13.80
2023-05-15T04:33:54.578Z,13.80
2023-05-15T04:36:25.433Z,13.80
2023-05-15T04:38:54.494Z,13.90
2023-05-15T04:41:23.370Z,13.90
2023-05-15T04:43:52.418Z,13.90
2023-05-15T04:46:21.536Z,13.90
2023-05-15T04:48:50.798Z,13.90
2023-05-15T04:51:19.928Z,14.00
2023-05-15T04:53:50.297Z,14.00
2023-05-15T04:56:19.411Z,14.00
2023-05-15T04:58:48.525Z,14.10
2023-05-15T05:01:17.648Z,14.10
2023-05-15T05:03:46.813Z,14.10
2023-05-15T05:06:16.096Z,14.10
2023-05-15T05:08:45.190Z,14.20
2023-05-15T05:11:15.688Z,14.30
2023-05-15T05:13:44.639Z,14.30
2023-05-15T05:16:13.977Z,14.40
2023-05-15T05:18:43.166Z,14.40
2023-05-15T05:21:12.446Z,14.50
2023-05-15T05:23:41.452Z,14.60
2023-05-15T05:26:10.486Z,14.60
2023-05-15T05:28:40.915Z,14.70
2023-05-15T05:31:10.145Z,14.70
2023-05-15T05:33:39.345Z,14.80
2023-05-15T05:36:09.047Z,14.90
2023-05-15T05:38:38.868Z,14.90
2023-05-15T05:41:07.834Z,14.90
2023-05-15T05:43:36.953Z,15.00
2023-05-15T05:46:07.433Z,15.10
2023-05-15T05:48:36.558Z,15.10
2023-05-15T05:51:05.951Z,15.20
2023-05-15T05:53:34.881Z,15.30
2023-05-15T05:56:04.142Z,15.30
2023-05-15T05:58:33.143Z,15.30
2023-05-15T06:01:02.581Z,15.40
2023-05-15T06:03:33.866Z,15.40
2023-05-15T06:06:03.247Z,15.50
2023-05-15T06:08:32.507Z,15.60
2023-05-15T06:11:01.630Z,15.60
2023-05-15T06:13:30.989Z,15.70
2023-05-15T06:16:00.129Z,15.70
2023-05-15T06:18:29.287Z,15.80
2023-05-15T06:21:00.359Z,15.80
2023-05-15T06:23:29.358Z,15.80
2023-05-15T06:25:58.822Z,15.90
2023-05-15T06:28:28.175Z,15.90
2023-05-15T06:30:57.279Z,16.00
2023-05-15T06:33:26.591Z,16.00
2023-05-15T06:35:56.160Z,16.00
2023-05-15T06:38:26.674Z,16.10
2023-05-15T06:40:56.062Z,16.10
2023-05-15T06:43:25.279Z,16.20
2023-05-15T06:45:54.789Z,16.20
2023-05-15T06:48:24.141Z,16.30
2023-05-15T06:54:08.901Z,16.50
2023-05-15T06:56:37.899Z,16.60
2023-05-15T06:59:08.176Z,16.70
2023-05-15T07:01:38.324Z,16.80
2023-05-15T07:04:07.941Z,16.80
2023-05-15T07:06:37.654Z,16.90
2023-05-15T07:09:08.145Z,17.00
2023-05-15T07:11:38.743Z,17.10
2023-05-15T07:14:08.244Z,17.10
2023-05-15T07:16:37.446Z,17.20
2023-05-15T07:19:06.522Z,17.30
2023-05-15T07:21:35.686Z,17.30
2023-05-15T07:24:05.195Z,17.40
2023-05-15T07:26:43.517Z,17.40
2023-05-15T07:29:16.002Z,17.50
2023-05-15T07:31:45.391Z,17.60
2023-05-15T07:34:14.559Z,17.70
2023-05-15T07:36:43.595Z,17.80
2023-05-15T07:39:13.178Z,17.80
2023-05-15T07:41:44.155Z,18.00
2023-05-15T07:44:13.073Z,18.00
2023-05-15T07:46:41.925Z,18.20
2023-05-15T07:49:11.310Z,18.20
2023-05-15T07:51:40.816Z,18.30
2023-05-15T07:54:10.297Z,18.30
2023-05-15T07:56:39.830Z,18.50
2023-05-15T07:59:10.612Z,18.50
2023-05-15T08:01:39.500Z,18.60
2023-05-15T08:04:10.508Z,18.60
2023-05-15T08:06:39.831Z,18.70
2023-05-15T08:09:09.222Z,18.70
2023-05-15T08:11:38.184Z,18.80
2023-05-15T08:14:07.378Z,18.80
2023-05-15T08:16:37.909Z,18.90
2023-05-15T08:19:08.154Z,19.00
2023-05-15T08:21:37.307Z,19.10
2023-05-15T08:24:07.080Z,19.20
2023-05-15T08:26:36.267Z,19.30
2023-05-15T08:29:05.518Z,19.40
2023-05-15T08:31:34.440Z,19.50
2023-05-15T08:34:04.900Z,19.50
2023-05-15T08:36:35.189Z,19.60
2023-05-15T08:39:04.751Z,19.60
2023-05-15T08:41:40.936Z,19.70
2023-05-15T08:44:11.037Z,19.80
2023-05-15T08:46:40.941Z,19.90
2023-05-15T08:49:21.229Z,20.00
2023-05-15T08:51:50.305Z,20.00
2023-05-15T08:54:19.546Z,20.10
2023-05-15T08:56:49.103Z,20.10
2023-05-15T08:59:18.648Z,20.10
2023-05-15T09:01:52.026Z,20.20
2023-05-15T09:04:22.709Z,20.20
2023-05-15T09:06:52.333Z,20.20
2023-05-15T09:09:21.973Z,20.30
2023-05-15T09:11:52.542Z,20.40
2023-05-15T09:14:21.567Z,20.50
2023-05-15T09:16:53.315Z,20.50
2023-05-15T09:19:23.857Z,20.60
2023-05-15T09:21:53.082Z,20.60
2023-05-15T09:24:24.589Z,20.70
2023-05-15T09:27:04.276Z,20.70
2023-05-15T09:29:34.746Z,20.80
2023-05-15T09:32:04.985Z,20.80
2023-05-15T09:34:37.002Z,20.90
2023-05-15T09:37:07.477Z,20.90
2023-05-15T09:39:42.445Z,21.00
2023-05-15T09:42:13.152Z,21.00
2023-05-15T09:44:44.070Z,21.00
2023-05-15T09:47:14.927Z,21.00
2023-05-15T09:49:47.326Z,21.00
2023-05-15T09:52:17.569Z,21.10
2023-05-15T09:54:50.304Z,21.10
2023-05-15T09:57:24.064Z,21.10
2023-05-15T09:59:53.205Z,21.20
2023-05-15T10:02:28.204Z,21.20
2023-05-15T10:04:59.550Z,21.20
2023-05-15T10:07:30.241Z,21.20
2023-05-15T10:09:59.850Z,21.30
2023-05-15T10:12:31.298Z,21.30
2023-05-15T10:15:01.362Z,21.30
2023-05-15T10:17:33.215Z,21.40
2023-05-15T10:20:07.001Z,21.50
2023-05-15T10:22:41.252Z,21.60
2023-05-15T10:25:17.398Z,21.70
2023-05-15T10:27:48.752Z,21.70
2023-05-15T10:30:18.147Z,21.80
2023-05-15T10:32:47.767Z,21.80
2023-05-15T10:35:18.592Z,21.70
2023-05-15T10:37:49.659Z,21.50
2023-05-15T10:40:19.003Z,21.30
2023-05-15T10:42:48.733Z,21.00
2023-05-15T10:45:18.459Z,20.80
2023-05-15T10:47:48.442Z,20.50
2023-05-15T10:50:19.902Z,20.30
2023-05-15T10:52:52.409Z,20.10
2023-05-15T10:55:27.881Z,19.90
2023-05-15T10:57:57.215Z,19.70
2023-05-15T11:00:28.942Z,19.50
2023-05-15T11:02:59.291Z,19.30
2023-05-15T11:05:31.195Z,19.20
2023-05-15T11:08:33.559Z,19.10
2023-05-15T11:11:02.911Z,19.00
2023-05-15T11:14:06.190Z,18.90
2023-05-15T11:17:04.991Z,18.90
2023-05-15T11:19:36.916Z,18.80
2023-05-15T11:22:20.997Z,18.80
2023-05-15T11:24:55.241Z,18.80
2023-05-15T11:27:27.716Z,18.70
2023-05-15T11:30:18.192Z,18.80
2023-05-15T11:32:52.184Z,18.80
2023-05-15T11:35:27.942Z,18.80
2023-05-15T11:38:00.547Z,18.80
2023-05-15T11:40:31.507Z,18.90
2023-05-15T11:43:02.770Z,18.90
2023-05-15T11:45:33.491Z,19.00
2023-05-15T11:48:04.076Z,19.00
2023-05-15T11:50:34.333Z,19.10
2023-05-15T11:53:06.377Z,19.20
2023-05-15T11:55:37.080Z,19.20
2023-05-15T11:58:11.491Z,19.40
2023-05-15T12:00:40.829Z,19.50
2023-05-15T12:03:17.326Z,19.70
2023-05-15T12:05:57.444Z,19.90
2023-05-15T12:08:33.325Z,20.10
2023-05-15T12:11:04.302Z,20.30
2023-05-15T12:13:34.271Z,20.50
2023-05-15T12:16:05.046Z,20.60
2023-05-15T12:18:34.945Z,20.70
2023-05-15T12:21:05.866Z,20.80
2023-05-15T12:23:36.286Z,20.80
2023-05-15T12:26:06.112Z,20.90
2023-05-15T12:28:37.188Z,20.90
2023-05-15T12:31:06.759Z,21.00
2023-05-15T12:33:36.350Z,21.00
2023-05-15T12:36:06.116Z,21.00
2023-05-15T12:38:37.572Z,21.10
2023-05-15T12:41:11.721Z,21.20
2023-05-15T12:43:41.199Z,21.30
2023-05-15T12:46:11.089Z,21.40
2023-05-15T12:48:42.202Z,21.50
2023-05-15T12:51:11.295Z,21.50
2023-05-15T12:53:43.438Z,21.60
2023-05-15T12:56:17.050Z,21.70
2023-05-15T12:58:46.190Z,21.70
2023-05-15T13:01:17.585Z,21.80
2023-05-15T13:03:48.113Z,21.80
2023-05-15T13:06:17.692Z,21.80
2023-05-15T13:08:49.199Z,21.90
2023-05-15T13:11:19.012Z,21.90
2023-05-15T13:13:49.294Z,22.00
2023-05-15T13:16:27.118Z,22.10
2023-05-15T13:18:57.044Z,22.20
2023-05-15T13:21:26.226Z,22.30
2023-05-15T13:23:57.009Z,22.50
2023-05-15T13:26:26.201Z,22.60
2023-05-15T13:28:56.593Z,22.70
2023-05-15T13:31:27.168Z,22.70
2023-05-15T13:33:56.478Z,22.80
2023-05-15T13:36:25.691Z,22.90
2023-05-15T13:38:56.208Z,23.00
2023-05-15T13:41:26.154Z,23.00
2023-05-15T13:43:55.643Z,23.00
2023-05-15T13:46:24.684Z,23.10
2023-05-15T13:48:53.857Z,23.00
2023-05-15T13:51:22.946Z,23.00
2023-05-15T13:53:51.946Z,22.90
2023-05-15T13:56:22.488Z,22.90
2023-05-15T13:58:51.610Z,22.80
2023-05-15T14:01:20.630Z,22.70
2023-05-15T14:03:49.815Z,22.80
2023-05-15T14:06:18.919Z,22.70
2023-05-15T14:08:48.049Z,22.80
2023-05-15T14:11:17.084Z,22.80
2023-05-15T14:13:47.479Z,22.90
2023-05-15T14:16:16.670Z,22.90
2023-05-15T14:18:45.660Z,22.90
2023-05-15T14:21:14.756Z,22.90
2023-05-15T14:23:44.959Z,22.80
2023-05-15T14:26:14.344Z,22.90
2023-05-15T14:29:00.634Z,22.80
2023-05-15T14:31:58.156Z,22.80
2023-05-15T14:34:27.132Z,22.90
2023-05-15T14:36:56.219Z,22.90
2023-05-15T14:39:25.270Z,22.90
2023-05-15T14:41:54.331Z,23.00
2023-05-15T14:44:24.872Z,23.00
2023-05-15T14:47:07.707Z,23.00
2023-05-15T14:49:37.022Z,23.00
2023-05-15T14:52:09.091Z,22.90
2023-05-15T14:54:38.791Z,22.90
2023-05-15T14:57:08.176Z,22.80
2023-05-15T14:59:38.788Z,22.80
2023-05-15T15:02:20.320Z,22.70
2023-05-15T15:04:58.748Z,22.70
2023-05-15T15:07:30.284Z,22.70
2023-05-15T15:10:07.857Z,22.80
2023-05-15T15:12:58.902Z,22.80
2023-05-15T15:15:30.111Z,22.70
2023-05-15T15:17:59.733Z,22.70
2023-05-15T15:20:29.705Z,22.70
2023-05-15T15:22:58.945Z,22.60
2023-05-15T15:25:29.806Z,22.60
2023-05-15T15:28:00.732Z,22.60
2023-05-15T15:30:31.297Z,22.60
2023-05-15T15:33:01.176Z,22.60
2023-05-15T15:35:30.529Z,22.60
2023-05-15T15:38:27.153Z,22.60
2023-05-15T15:40:56.397Z,22.50
2023-05-15T15:43:25.488Z,22.50
2023-05-15T15:45:56.385Z,22.50
2023-05-15T15:48:25.709Z,22.50
2023-05-15T15:50:54.893Z,22.40
2023-05-15T15:53:25.031Z,22.40
2023-05-15T15:55:54.194Z,22.40
2023-05-15T15:58:23.863Z,22.30
2023-05-15T16:00:53.114Z,22.30
2023-05-15T16:03:23.571Z,22.20
2023-05-15T16:05:52.850Z,22.20
2023-05-15T16:08:22.008Z,22.20
2023-05-15T16:10:51.022Z,22.20
2023-05-15T16:13:19.992Z,22.10
2023-05-15T16:15:51.756Z,22.10
2023-05-15T16:18:23.025Z,22.10
2023-05-15T16:20:53.679Z,22.10
2023-05-15T16:23:22.673Z,22.10
2023-05-15T16:25:51.709Z,22.00
2023-05-15T16:28:21.216Z,22.00
2023-05-15T16:30:51.448Z,22.00
2023-05-15T16:33:22.312Z,21.90
2023-05-15T16:35:51.832Z,21.90
2023-05-15T16:38:22.880Z,21.90
2023-05-15T16:40:52.132Z,21.90
2023-05-15T16:43:21.750Z,21.90
2023-05-15T16:45:51.112Z,21.90
2023-05-15T16:48:20.046Z,21.90
2023-05-15T16:50:48.902Z,21.90
2023-05-15T16:53:18.724Z,21.80
2023-05-15T16:55:49.143Z,21.80
2023-05-15T16:58:37.738Z,21.80
2023-05-15T17:01:10.136Z,21.80
2023-05-15T17:03:39.199Z,21.80
2023-05-15T17:06:26.610Z,21.80
2023-05-15T17:08:57.780Z,21.70
2023-05-15T17:11:28.323Z,21.70
2023-05-15T17:13:57.561Z,21.70
2023-05-15T17:16:26.616Z,21.70
2023-05-15T17:18:55.748Z,21.60
2023-05-15T17:21:24.857Z,21.60
2023-05-15T17:23:54.411Z,21.50
2023-05-15T17:26:23.678Z,21.50
2023-05-15T17:28:54.080Z,21.50
2023-05-15T17:31:23.102Z,21.50
2023-05-15T17:33:52.051Z,21.40
2023-05-15T17:36:21.218Z,21.40
2023-05-15T17:38:50.218Z,21.40
2023-05-15T17:41:19.364Z,21.40
2023-05-15T17:43:49.387Z,21.30
2023-05-15T17:46:20.140Z,21.30
2023-05-15T17:48:49.193Z,21.30
2023-05-15T17:51:18.114Z,21.20
2023-05-15T17:53:47.155Z,21.20
2023-05-15T17:56:16.281Z,21.10
2023-05-15T17:58:45.255Z,21.10
2023-05-15T18:01:14.178Z,21.10
2023-05-15T18:03:44.490Z,21.00
2023-05-15T18:06:50.923Z,21.00
2023-05-15T18:10:01.657Z,21.00
2023-05-15T18:12:31.056Z,21.00
2023-05-15T18:15:00.179Z,20.90
2023-05-15T18:17:30.042Z,20.90
2023-05-15T18:20:00.601Z,20.90
2023-05-15T18:22:29.672Z,20.80
2023-05-15T18:24:58.837Z,20.80
2023-05-15T18:27:29.247Z,20.80
2023-05-15T18:37:09.850Z,20.70
2023-05-15T18:39:39.303Z,20.60
2023-05-15T18:42:08.784Z,20.60
2023-05-15T18:44:37.902Z,20.60
2023-05-15T18:47:12.570Z,20.50
2023-05-15T18:49:41.658Z,20.50
2023-05-15T18:52:12.098Z,20.40
2023-05-15T18:54:41.750Z,20.40
2023-05-15T18:57:10.797Z,20.30
2023-05-15T18:59:39.802Z,20.30
2023-05-15T19:02:10.258Z,20.20
2023-05-15T19:05:20.622Z,20.20
2023-05-15T19:07:51.010Z,20.10
2023-05-15T19:10:20.018Z,20.00
2023-05-15T19:12:48.978Z,20.00
2023-05-15T19:15:19.056Z,20.00
2023-05-15T19:17:48.055Z,19.90
2023-05-15T19:20:17.383Z,19.90
2023-05-15T19:22:46.460Z,19.80
2023-05-15T19:25:22.761Z,19.70
2023-05-15T19:27:52.019Z,19.70
2023-05-15T19:30:21.412Z,19.70
2023-05-15T19:32:50.518Z,19.60
2023-05-15T19:35:19.976Z,19.50
2023-05-15T19:37:49.224Z,19.50
2023-05-15T19:40:19.852Z,19.40
2023-05-15T19:42:48.943Z,19.40
2023-05-15T19:45:18.053Z,19.40
2023-05-15T19:47:47.090Z,19.40
2023-05-15T19:50:16.270Z,19.30
2023-05-15T19:52:45.623Z,19.20
2023-05-15T19:55:15.104Z,19.20
2023-05-15T19:57:45.988Z,19.20
2023-05-15T20:00:15.851Z,19.10
2023-05-15T20:02:45.159Z,19.00
2023-05-15T20:05:14.283Z,19.00
2023-05-15T20:07:43.768Z,19.00
2023-05-15T20:10:14.060Z,18.90
2023-05-15T20:12:43.366Z,18.90
2023-05-15T20:15:15.788Z,18.80
2023-05-15T20:17:45.677Z,18.80
2023-05-15T20:20:15.156Z,18.80
2023-05-15T20:22:46.004Z,18.80
2023-05-15T20:25:16.746Z,18.80
2023-05-15T20:27:45.787Z,18.80
2023-05-15T20:30:16.814Z,18.70
2023-05-15T20:32:46.312Z,18.70
2023-05-15T20:35:15.917Z,18.70
2023-05-15T20:37:47.132Z,18.70
2023-05-15T20:40:16.639Z,18.70
2023-05-15T20:42:46.078Z,18.70
2023-05-15T20:45:17.258Z,18.60
2023-05-15T20:47:46.608Z,18.60
2023-05-15T20:50:16.084Z,18.60
2023-05-15T20:52:52.247Z,18.50
2023-05-15T20:55:24.247Z,18.50
2023-05-15T20:57:53.538Z,18.50
2023-05-15T21:00:24.183Z,18.50
2023-05-15T21:02:54.241Z,18.40
2023-05-15T21:05:23.665Z,18.40
2023-05-15T21:07:54.070Z,18.30
2023-05-15T21:10:23.194Z,18.30
2023-05-15T21:12:52.163Z,18.30
2023-05-15T21:15:22.707Z,18.30
2023-05-15T21:17:51.711Z,18.20
2023-05-15T21:20:21.084Z,18.20
2023-05-15T21:22:50.195Z,18.20
2023-05-15T21:25:19.929Z,18.10
2023-05-15T21:27:50.002Z,18.10
2023-05-15T21:30:19.207Z,18.10
2023-05-15T21:32:49.699Z,18.00
2023-05-15T21:35:18.884Z,18.00
2023-05-15T21:37:48.245Z,17.90
2023-05-15T21:40:17.522Z,17.90
2023-05-15T21:42:46.496Z,17.90
2023-05-15T21:45:15.916Z,17.80
2023-05-15T21:47:45.741Z,17.70
2023-05-15T21:50:35.361Z,17.70
2023-05-15T21:53:04.458Z,17.70
2023-05-15T21:55:33.581Z,17.60
2023-05-15T21:58:02.936Z,17.60
2023-05-15T22:00:32.016Z,17.50
2023-05-15T22:03:01.215Z,17.50
2023-05-15T22:05:31.870Z,17.40
2023-05-15T22:08:00.955Z,17.40
2023-05-15T22:10:29.996Z,17.40
2023-05-15T22:13:02.602Z,17.30
2023-05-15T22:15:31.541Z,17.30
2023-05-15T22:18:01.700Z,17.30
2023-05-15T22:21:06.316Z,17.20
2023-05-15T22:23:41.608Z,17.20
2023-05-15T22:26:39.753Z,17.20
2023-05-15T22:29:20.323Z,17.10
2023-05-15T22:31:49.565Z,17.10
2023-05-15T22:34:18.880Z,17.10
2023-05-15T22:36:49.518Z,17.00
2023-05-15T22:39:18.578Z,17.00
2023-05-15T22:41:47.935Z,16.90
2023-05-15T22:44:17.433Z,16.90
2023-05-15T22:46:46.525Z,16.90
2023-05-15T22:49:19.177Z,16.80
2023-05-15T22:51:49.663Z,16.80
2023-05-15T22:54:21.675Z,16.80
2023-05-15T22:56:52.851Z,16.70
2023-05-15T22:59:22.324Z,16.70
2023-05-15T23:01:51.542Z,16.70
2023-05-15T23:04:20.648Z,16.70
2023-05-15T23:06:51.143Z,16.60
2023-05-15T23:09:20.322Z,16.60
2023-05-15T23:11:49.430Z,16.50
2023-05-15T23:14:18.689Z,16.50
2023-05-15T23:16:49.114Z,16.40
2023-05-15T23:19:18.320Z,16.40
2023-05-15T23:21:48.016Z,16.40
2023-05-15T23:24:18.561Z,16.30
2023-05-15T23:26:48.138Z,16.30
2023-05-15T23:29:17.149Z,16.20
2023-05-15T23:35:13.001Z,16.10
2023-05-15T23:37:42.018Z,16.10
2023-05-15T23:40:14.463Z,16.10
2023-05-15T23:42:43.438Z,16.00
2023-05-15T23:45:13.822Z,16.00
2023-05-15T23:47:43.074Z,15.90
2023-05-15T23:50:12.275Z,15.90
2023-05-15T23:52:41.467Z,15.90
2023-05-15T23:55:13.018Z,15.90
2023-05-15T23:57:42.093Z,15.90
